This is the latest recevied weather packets stored in our database for station/object K2ATL. If no packets are shown the sender has not sent any weather packets the latest 10 day(s).
| Time | Temp. | Humidity | Pressure | Rain* | Wind** | Luminosity | Snow |
|---|---|---|---|---|---|---|---|
| 1787647747 | 20° C | 66% | 1103.2 hPa | 0 mm | - | 0 W/m² | - |
| 1787647443 | 20.56° C | 59% | 1103.3 hPa | 0 mm | - | 0 W/m² | - |
| 1787647140 | 20.56° C | 57% | 1103.3 hPa | 0 mm | - | 0 W/m² | - |
| 1787646836 | 20.56° C | 58% | 1103.4 hPa | 0 mm | - | 0 W/m² | - |
| 1787646531 | 20.56° C | 58% | 1103.2 hPa | 0 mm | - | 0 W/m² | - |
| 1787646227 | 20.56° C | 59% | 1103.2 hPa | 0 mm | - | 0 W/m² | - |
| 1787645922 | 20.56° C | 57% | 1102.8 hPa | 0 mm | - | 0 W/m² | - |
| 1787645617 | 20.56° C | 55% | 1103.1 hPa | 0 mm | - | 0 W/m² | - |
| 1787645313 | 20.56° C | 54% | 1103.1 hPa | 0 mm | - | 0 W/m² | - |
| 1787645008 | 19.44° C | 63% | 1102.8 hPa | 0 mm | - | 0 W/m² | - |
| 1787644703 | 19.44° C | 64% | 1103 hPa | 0 mm | - | 0 W/m² | - |
| 1787644398 | 19.44° C | 70% | 1102.8 hPa | 0 mm | - | 0 W/m² | - |
| 1787644093 | 19.44° C | 68% | 1102.8 hPa | 0 mm | - | 0 W/m² | - |
| 1787643789 | 19.44° C | 64% | 1103 hPa | 0 mm | - | 0 W/m² | - |
| 1787643479 | 19.44° C | 65% | 1103 hPa | 0 mm | - | 0 W/m² | - |
| 1787643175 | 20.56° C | 62% | 1103 hPa | 0 mm | - | 0 W/m² | - |
| 1787642871 | 21.11° C | 61% | 1103.2 hPa | 0 mm | - | 0 W/m² | - |
| 1787642565 | 21.11° C | 60% | 1103 hPa | 0 mm | - | 0 W/m² | - |
| 1787642265 | 21.11° C | 61% | 1103 hPa | 0 mm | - | 0 W/m² | - |
| 1787641963 | 21.11° C | 61% | 1103 hPa | 0 mm | - | 0 W/m² | - |
| 1787641662 | 21.67° C | 59% | 1103.2 hPa | 0 mm | - | 0 W/m² | - |
| 1787641357 | 21.67° C | 59% | 1103.2 hPa | 0 mm | - | 0 W/m² | - |
| 1787641056 | 21.67° C | 60% | 1103.3 hPa | 0 mm | - | 0 W/m² | - |
| 1787640751 | 21.67° C | 57% | 1103.5 hPa | 0 mm | - | 0 W/m² | - |
| 1787640446 | 21.11° C | 58% | 1103.5 hPa | 0 mm | - | 0 W/m² | - |
* Rain latest hour (hover to see other rain measurements)
** Current wind speed in m/s (hover to see current wind gust speed)